Terminal Aerodrome Forecast
Issued by NWS

Home | Current Version | Previous Version | Text Only | Print | Product List | Glossary On
Versions: 1 2 3 4 5 6 7 8 9 10 11 12 13 14 15 16 17 18 19
000
FTUS46 KSEW 291300 AAA
TAFHQM
TAF AMD
KHQM 291324Z 2913/3012 VRB03KT 3SM BR OVC003
     FM291800 25008KT 6SM BR OVC006
     FM292000 25014KT P6SM SCT010
     FM300300 24006KT 5SM BR OVC008=

USA.gov is the U.S. government's official web portal to all federal, state and local government web resources and services.